Time;durP1;ratioP1;P1;durP2;ratioP2;P2;SDS_P1;SDS_P2;PMS_P1;PMS_P2;Temp;Humidity;BMP_temperature;BMP_pressure;BME280_temperature;BME280_humidity;BME280_pressure;Samples;Min_cycle;Max_cycle;Signal;HPM_P1;HPM_P2
2023/11/04 00:02:01;;;;;;;2.30;1.60;;;9.70;74.00;;;;;;778419;184;26461;-87
2023/11/04 00:04:31;;;;;;;2.77;1.77;;;9.60;74.00;;;;;;780069;179;26455;-86
2023/11/04 00:07:00;;;;;;;3.93;1.50;;;9.60;74.10;;;;;;780076;179;26445;-85
2023/11/04 00:09:34;;;;;;;2.03;1.60;;;9.50;74.70;;;;;;778220;179;26510;-86
2023/11/04 00:12:03;;;;;;;1.50;1.40;;;9.60;74.90;;;;;;780295;184;26592;-83
2023/11/04 00:14:32;;;;;;;2.10;1.63;;;9.50;74.90;;;;;;780078;179;26976;-86
2023/11/04 00:17:04;;;;;;;2.07;1.70;;;9.50;75.00;;;;;;779925;184;26471;-87
2023/11/04 00:19:32;;;;;;;3.60;1.90;;;9.50;75.60;;;;;;779134;183;26489;-86
2023/11/04 00:22:00;;;;;;;2.00;1.60;;;9.40;75.50;;;;;;782143;180;26474;-88
2023/11/04 00:24:33;;;;;;;1.70;1.60;;;9.30;75.70;;;;;;768885;182;26461;-86
2023/11/04 00:27:04;;;;;;;1.77;1.57;;;9.50;75.90;;;;;;778391;183;26524;-86
2023/11/04 00:29:30;;;;;;;3.40;1.97;;;9.50;75.10;;;;;;778894;180;26475;-84
2023/11/04 00:31:58;;;;;;;2.03;1.80;;;9.40;75.30;;;;;;781095;179;26493;-86
2023/11/04 00:34:26;;;;;;;2.30;1.50;;;9.40;75.90;;;;;;781066;179;27027;-84
2023/11/04 00:36:51;;;;;;;3.70;1.63;;;9.40;76.40;;;;;;780829;179;26449;-84
2023/11/04 00:39:19;;;;;;;2.67;1.60;;;9.30;76.40;;;;;;778559;184;26493;-86
2023/11/04 00:41:46;;;;;;;2.13;1.53;;;9.40;76.70;;;;;;778144;184;26454;-86
2023/11/04 00:44:16;;;;;;;1.97;1.40;;;9.50;76.00;;;;;;778363;183;26475;-87
2023/11/04 00:46:48;;;;;;;1.40;1.30;;;9.40;76.30;;;;;;777825;184;26529;-83
2023/11/04 00:49:24;;;;;;;3.20;1.20;;;9.30;76.90;;;;;;778412;183;26446;-86
2023/11/04 00:51:51;;;;;;;1.50;1.33;;;9.40;76.00;;;;;;778089;185;26544;-86
2023/11/04 00:54:27;;;;;;;1.30;1.20;;;9.40;75.90;;;;;;778114;185;26485;-87
2023/11/04 00:57:15;;;;;;;1.30;1.10;;;9.50;75.70;;;;;;777718;185;26450;-87
2023/11/04 01:02:21;;;;;;;1.67;1.33;;;9.50;76.10;;;;;;775067;185;26475;-85
2023/11/04 01:04:54;;;;;;;1.50;1.40;;;9.50;75.70;;;;;;776791;184;26434;-87
2023/11/04 01:07:27;;;;;;;2.20;1.40;;;9.50;75.60;;;;;;777721;184;26502;-85
2023/11/04 01:09:54;;;;;;;1.40;1.30;;;9.60;75.60;;;;;;778411;180;27029;-85
2023/11/04 01:12:23;;;;;;;2.70;1.60;;;9.60;75.40;;;;;;777542;183;26481;-86
2023/11/04 01:14:55;;;;;;;1.50;1.40;;;9.60;75.10;;;;;;777521;180;26500;-85
2023/11/04 01:17:22;;;;;;;1.67;1.50;;;9.60;75.30;;;;;;777560;184;26438;-86
2023/11/04 01:19:52;;;;;;;1.67;1.40;;;9.60;75.30;;;;;;778859;180;26446;-86
2023/11/04 01:22:29;;;;;;;1.77;1.40;;;9.50;75.40;;;;;;760947;178;26611;-86
2023/11/04 01:24:59;;;;;;;2.27;1.40;;;9.60;75.40;;;;;;759216;189;26512;-86
2023/11/04 01:27:28;;;;;;;1.70;1.53;;;9.60;74.60;;;;;;759657;187;26530;-86
2023/11/04 01:30:00;;;;;;;1.83;1.60;;;9.60;74.90;;;;;;755512;185;27106;-85
2023/11/04 01:32:28;;;;;;;1.67;1.30;;;9.50;74.90;;;;;;783157;183;26495;-86
2023/11/04 01:34:58;;;;;;;4.33;2.23;;;9.50;74.80;;;;;;782208;181;26532;-86
2023/11/04 01:37:28;;;;;;;1.70;1.27;;;9.50;74.80;;;;;;781574;181;26497;-86
2023/11/04 01:39:55;;;;;;;1.37;1.17;;;9.50;74.70;;;;;;772647;181;27038;-86
2023/11/04 01:42:23;;;;;;;1.37;1.10;;;9.40;74.80;;;;;;770879;183;26493;-85
2023/11/04 01:44:50;;;;;;;2.40;1.40;;;9.50;74.40;;;;;;767462;184;26567;-87
2023/11/04 01:47:21;;;;;;;1.30;1.20;;;9.50;74.30;;;;;;767562;185;26495;-87
2023/11/04 01:49:52;;;;;;;1.67;1.40;;;9.50;73.90;;;;;;786979;180;26441;-86
2023/11/04 01:52:22;;;;;;;1.30;1.20;;;9.50;74.00;;;;;;787298;179;27080;-87
2023/11/04 01:54:49;;;;;;;1.50;1.40;;;9.30;74.20;;;;;;783989;178;27096;-86
2023/11/04 01:57:18;;;;;;;5.23;2.83;;;9.30;75.00;;;;;;785338;179;26466;-89
2023/11/04 01:59:49;;;;;;;3.73;1.50;;;9.30;75.00;;;;;;784539;178;26633;-88
2023/11/04 02:02:24;;;;;;;1.77;1.20;;;9.40;75.30;;;;;;787598;174;28098;-86
2023/11/04 02:04:55;;;;;;;2.50;1.47;;;9.30;75.60;;;;;;789237;178;26461;-87
2023/11/04 02:07:32;;;;;;;1.57;1.30;;;9.30;75.40;;;;;;786807;180;26468;-87
2023/11/04 02:10:02;;;;;;;2.57;1.30;;;9.40;75.80;;;;;;790616;180;26438;-86
2023/11/04 02:12:38;;;;;;;1.83;1.27;;;9.30;75.80;;;;;;785500;181;26438;-86
2023/11/04 02:15:20;;;;;;;;;;;;;;;;;;;;;
2023/11/04 02:17:49;;;;;;;1.23;1.13;;;9.30;75.70;;;;;;785351;177;27035;-87
2023/11/04 02:20:31;;;;;;;1.57;1.47;;;9.30;75.90;;;;;;784582;177;26474;-86
2023/11/04 02:23:03;;;;;;;1.47;1.30;;;9.40;76.30;;;;;;781521;181;26455;-86
2023/11/04 02:25:31;;;;;;;2.03;1.37;;;9.40;76.30;;;;;;786589;176;27016;-86
2023/11/04 02:27:58;;;;;;;1.70;1.30;;;9.40;76.20;;;;;;788164;180;26441;-86
2023/11/04 02:30:25;;;;;;;3.90;1.30;;;9.40;76.40;;;;;;785049;182;27016;-87
2023/11/04 02:32:55;;;;;;;3.20;1.87;;;9.40;76.80;;;;;;784593;182;26445;-86
2023/11/04 02:35:28;;;;;;;4.90;1.20;;;9.40;76.80;;;;;;786526;179;26429;-85
2023/11/04 02:38:10;;;;;;;1.87;1.40;;;9.40;76.70;;;;;;788559;182;26428;-86
2023/11/04 02:40:46;;;;;;;2.93;1.53;;;9.50;76.90;;;;;;786979;181;26459;-87
2023/11/04 02:43:16;;;;;;;2.10;1.30;;;9.50;76.90;;;;;;787543;181;26619;-86
2023/11/04 02:45:43;;;;;;;1.77;1.20;;;9.50;76.70;;;;;;787548;178;26496;-89
2023/11/04 02:48:13;;;;;;;1.60;1.50;;;9.50;76.70;;;;;;787554;180;26991;-86
2023/11/04 02:50:44;;;;;;;1.60;1.50;;;9.50;77.10;;;;;;789768;179;27105;-85
2023/11/04 02:53:19;;;;;;;1.87;1.33;;;9.40;77.10;;;;;;785787;181;26520;-87
2023/11/04 02:55:50;;;;;;;1.80;1.30;;;9.40;77.50;;;;;;789620;181;27008;-88
2023/11/04 02:58:17;;;;;;;1.60;1.20;;;9.60;77.50;;;;;;788300;178;26990;-85
2023/11/04 03:00:50;;;;;;;3.77;1.57;;;9.50;77.00;;;;;;784441;181;26466;-86
2023/11/04 03:03:37;;;;;;;2.20;1.40;;;9.60;77.50;;;;;;785496;181;26462;-87
2023/11/04 03:05:59;;;;;;;2.03;1.33;;;9.70;77.40;;;;;;783927;180;26466;-85
2023/11/04 03:08:30;;;;;;;1.70;1.50;;;9.60;77.30;;;;;;785035;176;26472;-89
2023/11/04 03:11:00;;;;;;;1.73;1.30;;;9.70;77.40;;;;;;787319;179;26483;-87
2023/11/04 03:13:29;;;;;;;2.73;1.20;;;9.70;77.40;;;;;;787367;181;26427;-86
2023/11/04 03:15:57;;;;;;;1.67;1.20;;;9.60;77.50;;;;;;782903;181;26441;-87
2023/11/04 03:18:26;;;;;;;1.57;1.47;;;9.70;77.70;;;;;;787709;178;26453;-86
2023/11/04 03:20:55;;;;;;;1.47;1.30;;;9.60;77.90;;;;;;785375;178;27075;-88
2023/11/04 03:23:31;;;;;;;1.50;1.40;;;9.60;78.20;;;;;;785209;180;27003;-87
2023/11/04 03:25:57;;;;;;;1.57;1.47;;;9.70;78.30;;;;;;783588;179;26455;-86
2023/11/04 03:28:37;;;;;;;2.30;1.30;;;9.70;78.10;;;;;;784175;182;26418;-86
2023/11/04 03:31:04;;;;;;;1.40;1.30;;;9.80;78.00;;;;;;780910;180;26542;-87
2023/11/04 03:33:31;;;;;;;2.20;1.30;;;9.80;77.80;;;;;;782676;181;26477;-87
2023/11/04 03:35:57;;;;;;;1.33;1.20;;;9.80;77.70;;;;;;781639;183;27153;-87
2023/11/04 03:38:24;;;;;;;1.40;1.30;;;9.80;77.90;;;;;;781505;183;26510;-87
2023/11/04 03:40:59;;;;;;;2.53;1.43;;;9.90;78.00;;;;;;780055;179;27028;-86
2023/11/04 03:43:26;;;;;;;1.53;1.30;;;9.90;77.90;;;;;;740176;192;27125;-86
2023/11/04 03:45:53;;;;;;;1.47;1.37;;;9.90;78.70;;;;;;742350;193;26513;-87
2023/11/04 03:48:27;;;;;;;1.40;1.30;;;9.90;77.90;;;;;;742074;193;26521;-87
2023/11/04 03:50:55;;;;;;;2.00;1.43;;;9.90;77.80;;;;;;737650;195;26538;-86
2023/11/04 03:53:29;;;;;;;1.73;1.40;;;9.90;78.10;;;;;;737616;193;26514;-86
2023/11/04 03:55:59;;;;;;;2.03;1.50;;;9.90;78.20;;;;;;746410;189;26494;-87
2023/11/04 03:58:25;;;;;;;1.77;1.50;;;9.90;78.40;;;;;;765249;187;26464;-87
2023/11/04 04:00:52;;;;;;;1.77;1.40;;;9.90;78.20;;;;;;764928;187;26453;-86
2023/11/04 04:03:20;;;;;;;3.90;1.40;;;9.90;78.20;;;;;;762098;187;26499;-87
2023/11/04 04:05:51;;;;;;;1.60;1.40;;;9.90;78.50;;;;;;761953;185;26510;-88
2023/11/04 04:08:17;;;;;;;2.43;1.40;;;9.80;78.50;;;;;;761567;189;26471;-86
2023/11/04 04:10:47;;;;;;;1.90;1.37;;;9.80;78.80;;;;;;761400;189;26466;-86
2023/11/04 04:13:14;;;;;;;1.73;1.40;;;9.70;79.40;;;;;;761074;189;26461;-86
2023/11/04 04:15:40;;;;;;;4.50;1.63;;;9.70;79.40;;;;;;761696;189;26461;-86
2023/11/04 04:18:15;;;;;;;2.33;1.20;;;9.60;80.00;;;;;;760896;189;26490;-86
2023/11/04 04:20:44;;;;;;;2.43;1.53;;;9.50;80.30;;;;;;760652;189;27045;-87
2023/11/04 04:23:17;;;;;;;1.87;1.40;;;9.50;80.40;;;;;;760819;189;26477;-86
2023/11/04 04:25:45;;;;;;;2.07;1.20;;;9.50;80.90;;;;;;761319;189;26983;-87
2023/11/04 04:28:12;;;;;;;4.47;2.63;;;9.60;80.50;;;;;;760978;188;26458;-87
2023/11/04 04:30:39;;;;;;;2.17;1.40;;;9.60;81.00;;;;;;760573;186;28085;-87
2023/11/04 04:33:05;;;;;;;1.20;1.10;;;9.50;80.80;;;;;;760304;189;26670;-86
2023/11/04 04:35:32;;;;;;;9.47;4.70;;;9.50;80.80;;;;;;760177;189;27050;-86
2023/11/04 04:37:59;;;;;;;1.57;1.40;;;9.50;81.00;;;;;;760735;189;26547;-87
2023/11/04 04:40:25;;;;;;;4.57;1.40;;;9.50;81.20;;;;;;760405;188;27090;-87
2023/11/04 04:42:52;;;;;;;3.73;1.50;;;9.40;81.40;;;;;;760407;189;26527;-87
2023/11/04 04:45:20;;;;;;;2.80;1.40;;;9.40;81.70;;;;;;760165;189;27079;-86
2023/11/04 04:47:45;;;;;;;1.80;1.50;;;9.40;81.70;;;;;;760393;188;26511;-86
2023/11/04 04:50:12;;;;;;;1.43;1.33;;;9.40;81.70;;;;;;760378;189;27172;-88
2023/11/04 04:52:38;;;;;;;1.40;1.30;;;9.50;81.70;;;;;;760278;189;26535;-87
2023/11/04 04:55:05;;;;;;;2.33;1.37;;;9.50;81.40;;;;;;761302;189;26502;-87
2023/11/04 04:57:31;;;;;;;2.70;1.30;;;9.50;81.50;;;;;;760394;184;26492;-87
2023/11/04 04:59:58;;;;;;;1.60;1.30;;;9.50;81.60;;;;;;760064;189;27060;-87
2023/11/04 05:02:25;;;;;;;1.50;1.33;;;9.70;81.40;;;;;;760462;189;26513;-87
2023/11/04 05:04:51;;;;;;;2.00;1.40;;;9.60;81.10;;;;;;761483;187;27150;-86
2023/11/04 05:07:18;;;;;;;1.87;1.50;;;9.60;81.20;;;;;;762731;188;26454;-87
2023/11/04 05:09:44;;;;;;;2.67;1.37;;;9.60;81.30;;;;;;762199;188;27025;-86
2023/11/04 05:12:11;;;;;;;1.60;1.50;;;9.60;81.60;;;;;;762007;188;26485;-87
2023/11/04 05:14:38;;;;;;;2.17;1.43;;;9.50;82.00;;;;;;762254;187;27045;-87
2023/11/04 05:17:04;;;;;;;1.50;1.40;;;9.50;82.30;;;;;;761745;189;26538;-86
2023/11/04 05:19:31;;;;;;;2.00;1.40;;;9.50;82.50;;;;;;761495;188;26478;-86
2023/11/04 05:21:57;;;;;;;2.93;1.40;;;9.50;82.60;;;;;;762075;189;27037;-88
2023/11/04 05:24:24;;;;;;;1.47;1.37;;;9.50;82.60;;;;;;761075;189;26473;-87
2023/11/04 05:26:51;;;;;;;1.50;1.40;;;9.40;83.20;;;;;;760870;189;27041;-87
2023/11/04 05:29:17;;;;;;;1.83;1.50;;;9.30;83.60;;;;;;761210;188;26503;-86
2023/11/04 05:31:46;;;;;;;2.20;1.30;;;9.20;84.00;;;;;;762020;187;27090;-86
2023/11/04 05:34:11;;;;;;;1.73;1.50;;;9.20;84.50;;;;;;761774;185;26480;-86
2023/11/04 05:36:37;;;;;;;2.97;1.50;;;9.10;84.70;;;;;;761196;188;26461;-87
2023/11/04 05:39:05;;;;;;;1.73;1.40;;;9.00;85.20;;;;;;761294;189;26479;-85
2023/11/04 05:41:31;;;;;;;1.50;1.40;;;8.90;85.20;;;;;;760821;188;26485;-87
2023/11/04 05:43:57;;;;;;;1.47;1.30;;;8.90;86.00;;;;;;760614;188;26840;-87
2023/11/04 05:46:23;;;;;;;2.70;1.40;;;8.90;85.80;;;;;;760402;188;26503;-87
2023/11/04 05:48:50;;;;;;;2.43;1.60;;;8.90;86.10;;;;;;759431;189;26462;-87
2023/11/04 05:51:25;;;;;;;1.57;1.47;;;8.90;86.20;;;;;;760525;189;26561;-85
2023/11/04 05:53:56;;;;;;;1.77;1.47;;;8.90;86.60;;;;;;758441;185;22049;-80
2023/11/04 05:56:22;;;;;;;3.17;1.70;;;8.90;88.00;;;;;;761587;188;26474;-80
2023/11/04 05:58:54;;;;;;;3.13;1.60;;;8.90;88.70;;;;;;761425;189;26508;-80
2023/11/04 06:01:33;;;;;;;2.00;1.53;;;9.00;88.20;;;;;;762152;189;27098;-80
2023/11/04 06:03:59;;;;;;;1.90;1.40;;;9.00;87.80;;;;;;762444;188;26508;-80
2023/11/04 06:06:26;;;;;;;6.90;1.80;;;9.00;87.20;;;;;;761576;189;26525;-79
2023/11/04 06:08:53;;;;;;;1.63;1.20;;;9.10;86.70;;;;;;761097;188;26485;-89
2023/11/04 06:11:19;;;;;;;1.70;1.47;;;9.00;86.40;;;;;;761334;189;27086;-87
2023/11/04 06:13:46;;;;;;;2.77;1.60;;;9.00;86.80;;;;;;760955;189;26510;-86
2023/11/04 06:16:21;;;;;;;2.40;1.30;;;8.90;87.20;;;;;;761501;187;27052;-85
2023/11/04 06:18:48;;;;;;;3.60;1.40;;;8.90;87.50;;;;;;763137;188;26613;-86
2023/11/04 06:21:16;;;;;;;2.40;1.50;;;9.00;87.20;;;;;;762310;189;26494;-86
2023/11/04 06:23:42;;;;;;;1.43;1.10;;;9.10;87.20;;;;;;761773;188;26491;-86
2023/11/04 06:26:08;;;;;;;2.87;1.50;;;9.10;86.60;;;;;;761785;187;27020;-86
2023/11/04 06:28:35;;;;;;;2.80;1.40;;;9.20;86.80;;;;;;762328;187;26470;-86
2023/11/04 06:31:01;;;;;;;3.10;1.40;;;9.30;86.40;;;;;;762892;187;27039;-86
2023/11/04 06:33:28;;;;;;;1.60;1.50;;;9.30;85.70;;;;;;761909;188;26491;-87
2023/11/04 06:35:54;;;;;;;3.00;1.30;;;9.40;85.90;;;;;;761957;187;27061;-88
2023/11/04 06:38:21;;;;;;;2.80;1.30;;;9.40;85.40;;;;;;761043;185;26495;-86
2023/11/04 06:40:48;;;;;;;2.53;1.57;;;9.50;85.70;;;;;;761879;189;27030;-87
2023/11/04 06:43:14;;;;;;;3.03;1.50;;;9.50;85.50;;;;;;759932;189;26514;-87
2023/11/04 06:45:41;;;;;;;1.40;1.30;;;9.60;85.60;;;;;;761345;189;27017;-85
2023/11/04 06:48:07;;;;;;;1.50;1.40;;;9.60;85.60;;;;;;761990;188;26479;-85
2023/11/04 06:50:36;;;;;;;3.33;1.90;;;9.60;85.40;;;;;;761551;189;26468;-86
2023/11/04 06:53:01;;;;;;;3.00;1.47;;;9.60;85.40;;;;;;761006;188;26483;-86
2023/11/04 06:55:28;;;;;;;3.03;1.57;;;9.70;85.90;;;;;;761319;189;26470;-88
2023/11/04 06:57:54;;;;;;;1.63;1.30;;;9.80;85.90;;;;;;761895;188;26471;-87
2023/11/04 07:00:20;;;;;;;1.57;1.30;;;9.80;85.40;;;;;;762108;189;26475;-86
2023/11/04 07:02:47;;;;;;;2.17;1.77;;;9.80;85.40;;;;;;761904;188;26493;-86
2023/11/04 07:05:14;;;;;;;3.60;1.73;;;9.80;85.10;;;;;;761802;188;26465;-87
2023/11/04 07:07:40;;;;;;;3.83;1.30;;;9.80;85.40;;;;;;760747;189;26482;-86
2023/11/04 07:10:09;;;;;;;1.50;1.40;;;9.80;85.70;;;;;;761164;189;26535;-86
2023/11/04 07:12:34;;;;;;;2.33;1.50;;;9.90;86.70;;;;;;761261;188;26527;-86
2023/11/04 07:15:00;;;;;;;1.30;1.20;;;9.90;85.60;;;;;;761487;185;27045;-86
2023/11/04 07:17:28;;;;;;;4.10;1.70;;;9.90;85.40;;;;;;761038;189;26534;-86
2023/11/04 07:19:55;;;;;;;2.60;1.50;;;10.00;83.90;;;;;;761594;188;27002;-86
2023/11/04 07:22:20;;;;;;;1.80;1.40;;;10.10;84.00;;;;;;760546;188;26509;-86
2023/11/04 07:24:47;;;;;;;1.53;1.40;;;10.10;83.90;;;;;;760940;189;27072;-87
2023/11/04 07:27:14;;;;;;;1.97;1.57;;;10.10;83.60;;;;;;761386;189;26488;-86
2023/11/04 07:29:40;;;;;;;1.97;1.33;;;10.10;83.60;;;;;;764054;187;27086;-87
2023/11/04 07:32:07;;;;;;;2.83;1.40;;;10.20;83.70;;;;;;762906;188;26498;-86
2023/11/04 07:34:33;;;;;;;2.03;1.40;;;10.20;83.90;;;;;;763100;188;26491;-86
2023/11/04 07:37:00;;;;;;;1.50;1.40;;;10.20;83.80;;;;;;762130;187;26496;-87
2023/11/04 07:39:28;;;;;;;3.50;1.60;;;10.30;83.60;;;;;;761356;189;26474;-86
2023/11/04 07:41:54;;;;;;;3.80;1.60;;;10.40;83.50;;;;;;761623;188;26490;-87
2023/11/04 07:44:21;;;;;;;2.20;1.23;;;10.50;83.10;;;;;;761866;189;26466;-86
2023/11/04 07:46:47;;;;;;;1.63;1.40;;;10.50;82.90;;;;;;761484;189;26492;-87
2023/11/04 07:49:14;;;;;;;4.30;1.63;;;10.50;82.40;;;;;;761773;189;26508;-88
2023/11/04 07:51:40;;;;;;;3.20;1.60;;;10.60;82.70;;;;;;760633;188;26494;-86
2023/11/04 07:54:07;;;;;;;3.47;1.70;;;10.50;82.60;;;;;;761689;189;26468;-86
2023/11/04 07:56:34;;;;;;;1.60;1.40;;;10.60;82.60;;;;;;761839;189;26478;-86
2023/11/04 07:59:00;;;;;;;1.63;1.40;;;10.70;82.30;;;;;;761990;189;26472;-86
2023/11/04 08:01:27;;;;;;;1.60;1.47;;;10.80;81.70;;;;;;764438;188;26493;-86
2023/11/04 08:03:53;;;;;;;2.03;1.37;;;10.80;81.90;;;;;;764757;188;26473;-87
2023/11/04 08:06:20;;;;;;;4.90;1.70;;;10.80;81.60;;;;;;764255;188;26469;-86
2023/11/04 08:08:47;;;;;;;1.83;1.63;;;10.80;82.00;;;;;;762395;187;26462;-86
2023/11/04 08:11:15;;;;;;;2.77;1.40;;;10.90;81.70;;;;;;761442;189;26531;-87
2023/11/04 08:13:40;;;;;;;2.00;1.63;;;10.90;82.10;;;;;;760561;188;27129;-86
2023/11/04 08:16:07;;;;;;;2.63;2.33;;;10.80;82.20;;;;;;760660;189;26508;-87
2023/11/04 08:18:34;;;;;;;2.93;2.00;;;10.80;82.80;;;;;;761242;188;26471;-86
2023/11/04 08:21:01;;;;;;;2.40;1.73;;;10.80;82.80;;;;;;760847;188;27069;-87
2023/11/04 08:23:27;;;;;;;2.90;1.80;;;10.70;82.80;;;;;;760740;188;26482;-87
2023/11/04 08:25:53;;;;;;;2.43;1.83;;;10.80;83.10;;;;;;761067;188;27465;-86
2023/11/04 08:28:20;;;;;;;3.83;1.80;;;10.80;82.80;;;;;;760983;189;26514;-87
2023/11/04 08:30:46;;;;;;;1.80;1.70;;;10.90;82.70;;;;;;760935;189;26474;-86
2023/11/04 08:33:13;;;;;;;3.13;1.67;;;10.80;82.10;;;;;;761102;189;26496;-86
2023/11/04 08:35:41;;;;;;;3.57;1.90;;;10.90;82.10;;;;;;760879;189;26532;-88
2023/11/04 08:38:06;;;;;;;3.07;2.20;;;10.90;81.90;;;;;;760820;189;26506;-86
2023/11/04 08:40:34;;;;;;;3.10;1.87;;;11.00;82.10;;;;;;762790;187;26491;-86
2023/11/04 08:43:00;;;;;;;3.83;1.87;;;11.10;81.80;;;;;;763224;188;27056;-86
2023/11/04 08:45:27;;;;;;;2.20;1.80;;;11.10;82.00;;;;;;763067;188;26462;-86
2023/11/04 08:47:53;;;;;;;2.23;1.80;;;11.10;83.80;;;;;;762641;186;27028;-86
2023/11/04 08:50:20;;;;;;;3.27;1.63;;;11.00;86.20;;;;;;762617;189;26457;-87
2023/11/04 08:52:46;;;;;;;2.37;1.90;;;10.80;87.80;;;;;;761611;189;26504;-88
2023/11/04 08:55:13;;;;;;;2.63;1.80;;;10.70;90.10;;;;;;761414;189;26476;-88
2023/11/04 08:57:40;;;;;;;3.00;2.00;;;10.80;90.30;;;;;;761343;189;27035;-91
2023/11/04 09:00:08;;;;;;;2.73;2.20;;;10.70;90.20;;;;;;761091;188;26500;-88
2023/11/04 09:02:34;;;;;;;3.40;2.20;;;10.80;90.20;;;;;;760493;184;26504;-88
2023/11/04 09:05:01;;;;;;;3.90;2.30;;;10.80;89.50;;;;;;760949;189;27041;-87
2023/11/04 09:07:28;;;;;;;2.67;2.23;;;10.80;89.80;;;;;;761270;189;26466;-89
2023/11/04 09:09:54;;;;;;;2.63;2.00;;;10.90;89.10;;;;;;761105;189;26496;-87
2023/11/04 09:12:21;;;;;;;3.47;2.20;;;10.90;87.70;;;;;;761648;188;26504;-88
2023/11/04 09:14:47;;;;;;;2.40;2.20;;;11.00;86.90;;;;;;761379;188;26556;-87
2023/11/04 09:17:14;;;;;;;4.20;1.83;;;11.10;86.60;;;;;;761016;189;26482;-87
2023/11/04 09:19:40;;;;;;;3.13;1.93;;;11.10;86.10;;;;;;761189;188;26441;-87
2023/11/04 09:22:08;;;;;;;5.03;2.40;;;11.10;85.80;;;;;;760944;189;26490;-87
2023/11/04 09:24:34;;;;;;;2.50;2.13;;;11.20;85.20;;;;;;760952;188;26486;-87
2023/11/04 09:27:01;;;;;;;2.90;2.03;;;11.20;84.50;;;;;;760652;189;26487;-87
2023/11/04 09:29:27;;;;;;;2.77;1.90;;;11.30;84.20;;;;;;760936;188;26466;-87
2023/11/04 09:40:18;;;;;;;3.40;1.87;;;11.80;81.40;;;;;;742111;175;26495;-86
2023/11/04 09:42:51;;;;;;;4.10;1.90;;;11.90;79.80;;;;;;795365;177;26513;-88
2023/11/04 09:45:22;;;;;;;3.93;1.80;;;11.90;79.90;;;;;;794565;178;26451;-88
2023/11/04 09:48:01;;;;;;;1.83;1.60;;;11.90;80.00;;;;;;798541;178;26429;-89
2023/11/04 09:50:51;;;;;;;2.97;1.80;;;12.20;78.90;;;;;;803720;178;28044;-89
2023/11/04 09:53:32;;;;;;;2.80;2.10;;;12.50;76.80;;;;;;793333;176;26433;-91
2023/11/04 09:56:08;;;;;;;2.10;1.73;;;12.70;75.00;;;;;;791346;180;27023;-91
2023/11/04 09:58:47;;;;;;;2.50;2.30;;;12.60;75.60;;;;;;793145;181;26993;-87
2023/11/04 10:01:23;;;;;;;2.43;1.73;;;12.60;76.40;;;;;;793562;177;26427;-86
2023/11/04 10:04:01;;;;;;;2.83;2.00;;;12.70;75.30;;;;;;791190;181;27032;-86
2023/11/04 10:09:29;;;;;;;2.70;1.80;;;12.60;75.10;;;;;;767606;181;26421;-87
2023/11/04 10:12:06;;;;;;;2.47;1.70;;;12.70;74.90;;;;;;791439;176;27024;-89
2023/11/04 10:17:31;;;;;;;2.23;1.77;;;12.80;74.50;;;;;;795438;177;26509;-89
2023/11/04 10:20:13;;;;;;;2.47;1.80;;;12.80;74.70;;;;;;796162;180;26444;-88
2023/11/04 10:22:59;;;;;;;2.47;1.70;;;12.80;72.80;;;;;;793259;179;26451;-85
2023/11/04 10:25:40;;;;;;;3.70;1.77;;;12.80;73.20;;;;;;809008;176;26366;-88
2023/11/04 10:28:17;;;;;;;2.80;1.80;;;12.70;71.60;;;;;;800301;178;26429;-87
2023/11/04 10:30:50;;;;;;;4.73;2.00;;;12.60;71.70;;;;;;802787;179;26373;-88
2023/11/04 10:33:35;;;;;;;3.40;1.80;;;12.60;71.80;;;;;;803561;176;26438;-88
2023/11/04 10:36:23;;;;;;;4.33;2.10;;;12.50;72.30;;;;;;807287;177;26426;-88
2023/11/04 10:38:56;;;;;;;3.50;2.20;;;12.40;72.50;;;;;;803152;177;26437;-88
2023/11/04 10:41:38;;;;;;;3.50;1.90;;;12.30;73.10;;;;;;808432;176;26364;-88
2023/11/04 10:44:16;;;;;;;3.57;1.93;;;12.10;74.20;;;;;;803707;176;26401;-89
2023/11/04 10:46:51;;;;;;;4.40;1.83;;;12.10;74.30;;;;;;800939;177;26374;-88
2023/11/04 10:49:41;;;;;;;6.40;1.90;;;12.00;74.30;;;;;;798320;176;26957;-88
2023/11/04 10:52:16;;;;;;;3.17;1.93;;;12.00;74.30;;;;;;806837;177;26371;-89
2023/11/04 10:55:15;;;;;;;5.10;2.17;;;11.90;74.30;;;;;;797769;178;26453;-89
2023/11/04 10:58:05;;;;;;;5.17;1.80;;;11.80;74.90;;;;;;792192;176;31642;-88
2023/11/04 11:00:36;;;;;;;3.03;2.00;;;11.90;75.30;;;;;;802263;176;26351;-87
2023/11/04 11:14:35;;;;;;;4.83;2.33;;;11.30;83.20;;;;;;725687;172;26507;-88
2023/11/04 11:17:05;;;;;;;4.30;2.17;;;11.10;85.00;;;;;;745060;189;27191;-91
2023/11/04 11:19:55;;;;;;;5.70;2.17;;;10.90;87.60;;;;;;751766;187;26671;-89
2023/11/04 11:22:25;;;;;;;3.67;2.20;;;10.80;88.00;;;;;;770293;175;26598;-89
2023/11/04 11:25:09;;;;;;;7.80;2.73;;;10.80;88.20;;;;;;744714;187;27202;-89
2023/11/04 12:20:43;;;;;;;3.57;2.40;;;10.40;92.00;;;;;;738287;176;27042;-85
2023/11/04 12:23:30;;;;;;;;;;;;;;;;;;;;;
2023/11/04 12:26:00;;;;;;;3.37;2.90;;;10.40;91.90;;;;;;794261;177;26485;-85
2023/11/04 12:28:27;;;;;;;5.77;2.70;;;10.40;92.30;;;;;;806277;177;26430;-86
2023/11/04 12:31:18;;;;;;;8.07;3.80;;;10.40;91.90;;;;;;781671;182;27039;-85
2023/11/04 12:33:50;;;;;;;5.37;2.70;;;10.40;92.00;;;;;;773943;184;26533;-84
2023/11/04 12:36:20;;;;;;;5.77;2.63;;;10.40;91.90;;;;;;777875;180;26482;-85
2023/11/04 12:38:47;;;;;;;5.60;2.50;;;10.40;91.70;;;;;;788045;180;26450;-84
2023/11/04 12:41:16;;;;;;;7.27;2.80;;;10.40;91.90;;;;;;768176;184;27029;-84
2023/11/04 12:52:29;;;;;;;5.13;1.90;;;10.50;91.30;;;;;;698166;184;26566;-88
2023/11/04 12:55:10;;;;;;;4.30;1.93;;;10.50;90.70;;;;;;731649;194;26549;-87
2023/11/04 12:57:48;;;;;;;6.33;1.80;;;10.40;90.90;;;;;;734527;195;26528;-87
2023/11/04 13:12:20;;;;;;;4.97;2.30;;;10.10;92.70;;;;;;750268;182;26556;-85
2023/11/04 13:14:59;;;;;;;1.73;1.63;;;10.00;93.60;;;;;;768786;186;26481;-86
2023/11/04 13:17:28;;;;;;;2.47;1.60;;;10.00;93.80;;;;;;777166;182;27022;-85
2023/11/04 13:19:57;;;;;;;1.67;1.47;;;10.00;93.20;;;;;;783141;182;26483;-87
2023/11/04 13:22:26;;;;;;;1.93;1.53;;;10.10;93.00;;;;;;776866;180;26475;-86
2023/11/04 13:24:54;;;;;;;4.93;1.63;;;10.20;92.80;;;;;;775835;181;26552;-89
2023/11/04 13:27:21;;;;;;;2.13;1.30;;;10.30;92.40;;;;;;775441;182;26463;-88
2023/11/04 13:29:48;;;;;;;3.77;1.50;;;10.30;92.30;;;;;;770186;183;26464;-90
2023/11/04 13:32:14;;;;;;;1.63;1.23;;;10.30;92.50;;;;;;770350;180;27124;-89
2023/11/04 13:34:40;;;;;;;1.70;1.37;;;10.30;92.30;;;;;;756476;186;27033;-90
2023/11/04 13:37:07;;;;;;;2.70;1.50;;;10.40;91.70;;;;;;751932;186;26522;-89
2023/11/04 13:39:34;;;;;;;1.50;1.40;;;10.30;91.70;;;;;;752102;190;26485;-91
2023/11/04 13:42:00;;;;;;;1.93;1.43;;;10.30;92.00;;;;;;754500;187;26489;-89
2023/11/04 13:44:37;;;;;;;2.10;1.30;;;10.30;91.90;;;;;;766707;184;26511;-89
2023/11/04 13:47:04;;;;;;;2.57;1.90;;;10.30;91.40;;;;;;765044;187;26548;-90
2023/11/04 13:49:31;;;;;;;2.30;1.57;;;10.30;91.60;;;;;;765382;184;27045;-89
2023/11/04 13:51:58;;;;;;;3.90;1.40;;;10.40;91.40;;;;;;758582;187;26514;-88
2023/11/04 13:54:24;;;;;;;1.73;1.40;;;10.60;91.00;;;;;;762974;184;26508;-88
2023/11/04 13:56:51;;;;;;;2.23;1.20;;;11.20;90.20;;;;;;765104;184;26492;-89
2023/11/04 13:59:18;;;;;;;2.37;1.30;;;11.80;88.20;;;;;;765023;185;26535;-88
2023/11/04 14:01:46;;;;;;;1.47;1.37;;;12.00;84.50;;;;;;756899;187;27049;-89
2023/11/04 14:04:11;;;;;;;1.87;1.50;;;11.80;85.40;;;;;;759324;186;26538;-88
2023/11/04 14:06:38;;;;;;;1.40;1.30;;;11.70;86.10;;;;;;745364;190;27124;-91
2023/11/04 14:09:05;;;;;;;1.83;1.20;;;11.30;86.30;;;;;;768064;184;26505;-89
2023/11/04 14:11:31;;;;;;;1.30;1.20;;;11.10;88.10;;;;;;762169;187;26493;-88
2023/11/04 14:13:58;;;;;;;1.40;1.30;;;11.00;88.40;;;;;;754811;187;26509;-89
2023/11/04 14:16:27;;;;;;;3.17;1.83;;;11.00;88.50;;;;;;765818;186;26588;-88
2023/11/04 14:18:53;;;;;;;2.17;1.50;;;11.00;89.30;;;;;;764450;188;26587;-89
2023/11/04 14:21:18;;;;;;;1.80;1.70;;;10.80;89.40;;;;;;763309;188;27060;-89
2023/11/04 14:23:44;;;;;;;1.80;1.37;;;10.80;89.60;;;;;;753616;187;26551;-89
2023/11/04 14:26:11;;;;;;;1.40;1.30;;;10.70;89.70;;;;;;767908;186;26530;-89
2023/11/04 14:28:37;;;;;;;2.23;1.40;;;10.60;89.00;;;;;;764457;188;26522;-89
2023/11/04 14:31:04;;;;;;;1.50;1.40;;;10.60;90.00;;;;;;763254;188;26498;-88
2023/11/04 14:33:31;;;;;;;1.40;1.30;;;10.60;90.50;;;;;;751867;187;27040;-89
2023/11/04 14:35:57;;;;;;;2.43;1.47;;;10.60;90.00;;;;;;768444;187;26542;-90
2023/11/04 14:38:24;;;;;;;1.20;1.10;;;10.60;90.20;;;;;;768153;185;26534;-89
2023/11/04 14:40:50;;;;;;;1.40;1.30;;;10.60;89.90;;;;;;766401;187;27064;-91
2023/11/04 14:43:17;;;;;;;1.50;1.40;;;10.60;90.00;;;;;;754614;187;26560;-88
2023/11/04 14:45:44;;;;;;;1.90;1.53;;;10.60;89.60;;;;;;746991;190;27032;-89
2023/11/04 14:48:10;;;;;;;1.80;1.50;;;10.50;90.00;;;;;;759855;188;26516;-88
2023/11/04 14:50:38;;;;;;;1.70;1.57;;;10.50;90.10;;;;;;759792;189;27048;-88